Terminal Aerodrome Forecast
Issued by NWS

Home | Current Version | Previous Version | Text Only | Print | Product List | Glossary Off
Versions: 1 2 3 4 5 6 7 8 9 10 11 12 13 14 15 16 17 18 19 20 21 22 23 24 25 26 27 28 29 30 31 32 33 34 35 36 37 38

000
FTUS43 KLOT 291400 AAB
TAFORD
TAF AMD
KORD 291418Z 2914/3018 33015G23KT 6SM -RASN BR OVC016
      TEMPO 2914/2916 3SM -SN OVC010
     FM291700 33018G31KT P6SM OVC015
     FM300100 32017G24KT P6SM BKN020
     FM300900 32011G18KT P6SM SCT020
     FM301600 30008KT P6SM FEW250=

USA.gov is the U.S. government's official web portal to all federal, state and local government web resources and services.